Time;durP1;ratioP1;P1;durP2;ratioP2;P2;SDS_P1;SDS_P2;PMS_P1;PMS_P2;Temp;Humidity;BMP_temperature;BMP_pressure;BME280_temperature;BME280_humidity;BME280_pressure;Samples;Min_cycle;Max_cycle;Signal;HPM_P1;HPM_P2
2023/10/28 00:00:58;;;;;;;12.93;5.63;;;12.70;99.90;;;;;;4898327;29;20385;-81
2023/10/28 00:03:24;;;;;;;14.63;5.70;;;12.70;99.90;;;;;;4898150;29;20041;-82
2023/10/28 00:05:50;;;;;;;12.10;5.07;;;12.60;99.90;;;;;;4881555;29;20040;-79
2023/10/28 00:08:16;;;;;;;11.68;4.85;;;12.60;99.90;;;;;;4898105;29;20040;-76
2023/10/28 00:10:42;;;;;;;16.33;4.68;;;12.60;99.90;;;;;;4881609;29;20218;-77
2023/10/28 00:13:08;;;;;;;9.73;4.15;;;12.60;99.90;;;;;;4898033;29;20036;-83
2023/10/28 00:15:35;;;;;;;11.80;4.72;;;12.60;99.90;;;;;;4898643;29;20517;-83
2023/10/28 00:18:02;;;;;;;13.93;4.35;;;12.60;99.90;;;;;;4897715;29;20020;-83
2023/10/28 00:20:29;;;;;;;8.65;4.20;;;12.60;99.90;;;;;;4889676;29;20052;-82
2023/10/28 00:22:57;;;;;;;10.65;3.97;;;12.60;99.90;;;;;;4916785;29;20119;-82
2023/10/28 00:25:28;;;;;;;12.75;3.60;;;12.60;99.90;;;;;;4917832;29;20036;-82
2023/10/28 00:27:55;;;;;;;13.40;3.40;;;12.60;99.90;;;;;;4907524;29;20040;-82
2023/10/28 00:30:24;;;;;;;8.45;3.70;;;12.70;99.90;;;;;;4923443;29;20465;-82
2023/10/28 00:32:54;;;;;;;8.20;3.80;;;12.70;99.90;;;;;;4891558;29;20036;-82
2023/10/28 00:35:22;;;;;;;12.50;3.60;;;12.60;99.90;;;;;;4906631;29;20131;-82
2023/10/28 00:37:48;;;;;;;8.13;3.40;;;12.60;99.90;;;;;;4906263;29;20350;-83
2023/10/28 00:40:15;;;;;;;8.00;3.30;;;12.60;99.90;;;;;;4922973;29;20035;-81
2023/10/28 00:42:41;;;;;;;13.38;3.72;;;12.60;99.90;;;;;;4890420;29;20524;-82
2023/10/28 00:45:11;;;;;;;11.18;3.55;;;12.50;99.90;;;;;;4922961;29;20147;-83
2023/10/28 00:47:38;;;;;;;13.10;3.00;;;12.50;99.90;;;;;;4922747;29;20469;-83
2023/10/28 00:50:10;;;;;;;11.93;3.03;;;12.60;99.90;;;;;;4923460;29;20039;-83
2023/10/28 00:52:41;;;;;;;10.05;3.83;;;12.60;99.90;;;;;;4923443;29;20039;-83
2023/10/28 00:55:10;;;;;;;10.52;3.55;;;12.60;99.90;;;;;;4923737;29;20346;-82
2023/10/28 00:57:38;;;;;;;13.32;3.40;;;12.60;99.90;;;;;;4923369;29;20044;-83
2023/10/28 01:00:06;;;;;;;16.23;3.88;;;12.60;99.90;;;;;;4923336;29;20421;-82
2023/10/28 01:02:35;;;;;;;13.13;3.45;;;12.60;99.90;;;;;;4924128;29;20032;-82
2023/10/28 01:05:02;;;;;;;12.07;3.13;;;12.60;99.90;;;;;;4926591;29;20040;-83
2023/10/28 01:07:29;;;;;;;14.00;3.13;;;12.60;99.90;;;;;;4911181;29;20470;-83
2023/10/28 01:09:55;;;;;;;7.88;2.60;;;12.60;99.90;;;;;;4928464;29;20032;-82
2023/10/28 01:12:23;;;;;;;10.60;2.63;;;12.60;99.90;;;;;;4897940;29;20036;-82
2023/10/28 01:14:52;;;;;;;9.20;2.92;;;12.60;99.90;;;;;;4928179;29;20036;-83
2023/10/28 01:17:20;;;;;;;7.30;2.58;;;12.60;99.90;;;;;;4926360;29;20024;-81
2023/10/28 01:19:46;;;;;;;8.32;3.60;;;12.60;99.90;;;;;;4904839;29;20059;-82
2023/10/28 01:22:12;;;;;;;8.30;2.88;;;12.70;99.90;;;;;;4904124;29;20036;-82
2023/10/28 01:24:38;;;;;;;8.52;2.92;;;12.70;99.90;;;;;;4888165;29;20040;-81
2023/10/28 01:27:04;;;;;;;8.55;2.70;;;12.70;99.90;;;;;;4905008;29;20040;-81
2023/10/28 01:29:29;;;;;;;10.25;2.42;;;12.70;99.90;;;;;;4903996;29;20041;-82
2023/10/28 01:31:55;;;;;;;9.13;2.45;;;12.70;99.90;;;;;;4903925;29;20085;-82
2023/10/28 01:34:22;;;;;;;10.13;2.40;;;12.70;99.90;;;;;;4887855;29;20064;-81
2023/10/28 01:36:48;;;;;;;10.75;2.60;;;12.70;99.90;;;;;;4871088;29;20454;-81
2023/10/28 01:39:15;;;;;;;10.63;2.65;;;12.70;99.90;;;;;;4900171;29;20033;-83
2023/10/28 01:41:42;;;;;;;10.35;2.78;;;12.70;99.90;;;;;;4901326;29;20037;-82
2023/10/28 01:44:08;;;;;;;14.38;3.10;;;12.70;99.90;;;;;;4884038;29;20136;-84
2023/10/28 01:46:33;;;;;;;10.93;3.15;;;12.60;99.90;;;;;;4884210;29;20175;-79
2023/10/28 01:48:59;;;;;;;9.57;2.50;;;12.60;99.90;;;;;;4900619;29;20116;-83
2023/10/28 01:51:25;;;;;;;10.95;2.83;;;12.60;99.90;;;;;;4900751;29;20367;-78
2023/10/28 01:53:51;;;;;;;9.05;2.63;;;12.60;99.90;;;;;;4900738;29;20040;-83
2023/10/28 01:56:17;;;;;;;11.02;2.60;;;12.60;99.90;;;;;;4900267;29;20107;-82
2023/10/28 01:58:43;;;;;;;10.60;2.63;;;12.60;99.90;;;;;;4900649;29;20033;-82
2023/10/28 02:01:09;;;;;;;8.82;2.60;;;12.50;99.90;;;;;;4900668;29;20363;-83
2023/10/28 02:03:34;;;;;;;11.13;2.78;;;12.50;99.90;;;;;;4900794;29;20029;-83
2023/10/28 02:06:00;;;;;;;8.00;2.35;;;12.50;99.90;;;;;;4884093;29;20100;-83
2023/10/28 02:08:26;;;;;;;13.98;2.38;;;12.50;99.90;;;;;;4883686;29;20036;-83
2023/10/28 02:10:51;;;;;;;7.55;2.58;;;12.50;99.90;;;;;;4900472;29;20036;-83
2023/10/28 02:13:17;;;;;;;16.85;2.95;;;12.60;99.90;;;;;;4900409;29;20056;-83
2023/10/28 02:15:44;;;;;;;12.93;2.78;;;12.50;99.90;;;;;;4900563;29;20028;-83
2023/10/28 02:18:10;;;;;;;11.52;2.03;;;12.60;99.90;;;;;;4884949;29;20103;-83
2023/10/28 02:20:36;;;;;;;9.93;2.20;;;12.60;99.90;;;;;;4900828;29;20091;-83
2023/10/28 02:23:02;;;;;;;7.85;2.40;;;12.60;99.90;;;;;;4901145;29;20032;-83
2023/10/28 02:25:28;;;;;;;9.30;2.00;;;12.60;99.90;;;;;;4900415;29;20046;-83
2023/10/28 02:27:54;;;;;;;11.95;2.30;;;12.70;99.90;;;;;;4900387;29;20106;-84
2023/10/28 02:30:19;;;;;;;7.63;2.30;;;12.60;99.90;;;;;;4900139;29;20040;-83
2023/10/28 02:32:45;;;;;;;6.90;1.90;;;12.60;99.90;;;;;;4900024;29;20449;-83
2023/10/28 02:35:11;;;;;;;7.40;2.15;;;12.70;99.90;;;;;;4867476;29;20389;-82
2023/10/28 02:37:39;;;;;;;6.50;2.25;;;12.60;99.90;;;;;;4899809;29;20040;-83
2023/10/28 02:40:08;;;;;;;6.30;1.80;;;12.60;99.90;;;;;;4883219;29;20373;-83
2023/10/28 02:42:34;;;;;;;8.82;2.25;;;12.60;99.90;;;;;;4899682;29;20438;-84
2023/10/28 02:44:59;;;;;;;10.90;2.25;;;12.70;99.90;;;;;;4899778;29;20178;-84
2023/10/28 02:47:25;;;;;;;7.35;1.85;;;12.60;99.90;;;;;;4899249;29;20385;-83
2023/10/28 02:49:51;;;;;;;15.05;2.95;;;12.60;99.90;;;;;;4898446;29;20035;-83
2023/10/28 02:52:16;;;;;;;9.70;2.50;;;12.60;99.90;;;;;;4900130;29;20028;-82
2023/10/28 02:54:43;;;;;;;9.85;2.80;;;12.60;99.90;;;;;;4899732;29;20390;-82
2023/10/28 02:57:08;;;;;;;10.30;2.13;;;12.50;99.90;;;;;;4883222;29;20040;-82
2023/10/28 02:59:34;;;;;;;9.95;2.47;;;12.50;99.90;;;;;;4899844;29;20036;-80
2023/10/28 03:02:00;;;;;;;12.23;2.20;;;12.50;99.90;;;;;;4882687;29;20116;-80
2023/10/28 03:04:25;;;;;;;9.02;2.00;;;12.40;99.90;;;;;;4899223;29;20123;-83
2023/10/28 03:06:52;;;;;;;11.20;2.08;;;12.50;99.90;;;;;;4899354;29;20039;-82
2023/10/28 03:09:17;;;;;;;7.50;1.45;;;12.50;99.90;;;;;;4899519;29;20435;-82
2023/10/28 03:11:43;;;;;;;7.80;1.77;;;12.50;99.90;;;;;;4898968;29;20112;-83
2023/10/28 03:14:08;;;;;;;8.63;1.75;;;12.50;99.90;;;;;;4899652;29;20052;-82
2023/10/28 03:16:34;;;;;;;5.82;2.30;;;12.50;99.90;;;;;;4899838;29;20032;-82
2023/10/28 03:19:00;;;;;;;11.88;2.22;;;12.60;99.90;;;;;;4899175;29;20492;-83
2023/10/28 03:21:26;;;;;;;6.80;2.10;;;12.60;99.90;;;;;;4898273;29;20080;-83
2023/10/28 03:23:51;;;;;;;5.03;1.60;;;12.60;99.90;;;;;;4885038;29;20096;-83
2023/10/28 03:26:17;;;;;;;6.28;1.60;;;12.60;99.90;;;;;;4918443;29;20069;-83
2023/10/28 03:28:42;;;;;;;6.57;1.60;;;12.60;99.90;;;;;;4901158;29;20385;-83
2023/10/28 03:31:12;;;;;;;6.25;1.40;;;12.70;99.90;;;;;;4917606;29;20437;-83
2023/10/28 03:33:41;;;;;;;7.32;1.70;;;12.70;99.90;;;;;;4917846;29;20032;-83
2023/10/28 03:36:10;;;;;;;8.02;1.50;;;12.70;99.90;;;;;;4900735;29;20028;-84
2023/10/28 03:38:36;;;;;;;5.32;1.52;;;12.60;99.90;;;;;;4917595;29;20032;-80
2023/10/28 03:41:08;;;;;;;8.00;1.70;;;12.60;99.90;;;;;;4917544;29;20040;-84
2023/10/28 03:43:35;;;;;;;5.07;1.40;;;12.60;99.90;;;;;;4917342;29;20032;-83
2023/10/28 03:46:01;;;;;;;6.55;1.35;;;12.60;99.90;;;;;;4900345;29;20378;-83
2023/10/28 03:48:27;;;;;;;5.13;1.15;;;12.50;99.90;;;;;;4917603;29;20028;-83
2023/10/28 03:51:03;;;;;;;3.97;1.35;;;12.60;99.90;;;;;;4900544;29;20465;-83
2023/10/28 03:53:29;;;;;;;8.77;1.35;;;12.50;99.90;;;;;;4917224;29;20120;-83
2023/10/28 03:55:55;;;;;;;10.43;1.70;;;12.60;99.90;;;;;;4917453;29;20028;-83
2023/10/28 03:58:21;;;;;;;5.72;1.30;;;12.60;99.90;;;;;;4917298;29;20096;-84
2023/10/28 04:00:54;;;;;;;4.13;0.95;;;12.50;99.90;;;;;;4900286;29;20040;-82
2023/10/28 04:03:20;;;;;;;5.18;1.08;;;12.50;99.90;;;;;;4917051;29;20500;-82
2023/10/28 04:05:47;;;;;;;3.88;0.90;;;12.50;99.90;;;;;;4917107;29;20060;-81
2023/10/28 04:08:12;;;;;;;4.10;0.95;;;12.50;99.90;;;;;;4917197;29;20108;-81
2023/10/28 04:10:38;;;;;;;4.53;0.95;;;12.50;99.90;;;;;;4916902;29;20032;-82
2023/10/28 04:13:04;;;;;;;3.90;1.02;;;12.40;99.90;;;;;;4916957;29;20038;-82
2023/10/28 04:15:30;;;;;;;4.20;1.02;;;12.40;99.90;;;;;;4900816;29;20469;-82
2023/10/28 04:17:55;;;;;;;3.55;0.85;;;12.50;99.90;;;;;;4885432;29;20032;-83
2023/10/28 04:20:22;;;;;;;3.35;0.70;;;12.40;99.90;;;;;;4902432;29;20144;-81
2023/10/28 04:22:47;;;;;;;5.28;1.00;;;12.50;99.90;;;;;;4917093;29;20138;-84
2023/10/28 04:25:14;;;;;;;3.85;1.02;;;12.40;99.90;;;;;;4900577;29;20114;-83
2023/10/28 04:27:40;;;;;;;7.40;1.33;;;12.40;99.90;;;;;;4917904;29;20529;-84
2023/10/28 04:30:07;;;;;;;5.00;1.25;;;12.30;99.90;;;;;;4917747;29;20036;-83
2023/10/28 04:32:33;;;;;;;2.17;1.00;;;12.30;99.90;;;;;;4901846;29;20032;-83
2023/10/28 04:34:58;;;;;;;7.00;1.27;;;12.30;99.90;;;;;;4885213;29;20046;-84
2023/10/28 04:37:24;;;;;;;3.08;0.90;;;12.30;99.90;;;;;;4899883;29;20071;-84
2023/10/28 04:39:51;;;;;;;4.05;1.10;;;12.30;99.90;;;;;;4900230;29;20083;-83
2023/10/28 04:42:18;;;;;;;3.63;1.10;;;12.30;99.90;;;;;;4916629;29;20096;-81
2023/10/28 04:44:44;;;;;;;2.47;1.17;;;12.30;99.90;;;;;;4916999;29;20054;-80
2023/10/28 04:47:09;;;;;;;3.00;0.93;;;12.30;99.90;;;;;;4916582;29;20123;-81
2023/10/28 04:49:35;;;;;;;4.18;1.30;;;12.30;99.90;;;;;;4899770;29;20028;-83
2023/10/28 04:52:01;;;;;;;4.60;1.70;;;12.30;99.90;;;;;;4916613;29;20028;-82
2023/10/28 04:54:26;;;;;;;6.18;1.33;;;12.30;99.90;;;;;;4916528;29;20540;-83
2023/10/28 04:56:52;;;;;;;4.63;1.40;;;12.20;99.90;;;;;;4899426;29;20123;-83
2023/10/28 04:59:18;;;;;;;3.15;1.30;;;12.20;99.90;;;;;;4916456;29;20032;-82
2023/10/28 05:01:43;;;;;;;2.97;1.40;;;12.20;99.90;;;;;;4899882;29;20570;-82
2023/10/28 05:04:09;;;;;;;4.10;1.08;;;12.20;99.90;;;;;;4899377;29;20037;-83
2023/10/28 05:06:36;;;;;;;8.80;1.75;;;12.20;99.90;;;;;;4884033;29;20496;-82
2023/10/28 05:09:01;;;;;;;4.63;1.40;;;12.30;99.90;;;;;;4916403;29;20465;-82
2023/10/28 05:11:27;;;;;;;6.47;1.70;;;12.30;99.90;;;;;;4917186;29;20036;-82
2023/10/28 05:13:53;;;;;;;3.38;1.25;;;12.30;99.90;;;;;;4904122;29;20441;-82
2023/10/28 05:16:19;;;;;;;5.07;1.40;;;12.30;99.90;;;;;;4921546;29;20042;-81
2023/10/28 05:18:45;;;;;;;3.97;1.40;;;12.30;99.90;;;;;;4922796;29;20068;-81
2023/10/28 05:21:11;;;;;;;5.45;1.45;;;12.30;99.90;;;;;;4906872;29;20385;-81
2023/10/28 05:23:40;;;;;;;7.75;1.30;;;12.30;99.90;;;;;;4901238;29;20071;-81
2023/10/28 05:26:06;;;;;;;3.72;1.00;;;12.30;99.90;;;;;;4884913;29;20132;-81
2023/10/28 05:28:32;;;;;;;3.97;1.05;;;12.30;99.90;;;;;;4900832;29;20040;-83
2023/10/28 05:30:58;;;;;;;3.10;1.17;;;12.30;99.90;;;;;;4884238;29;20029;-83
2023/10/28 05:33:24;;;;;;;3.55;1.10;;;12.30;99.90;;;;;;4900986;29;20032;-83
2023/10/28 05:35:51;;;;;;;2.60;1.23;;;12.30;99.90;;;;;;4883968;29;20060;-81
2023/10/28 05:38:17;;;;;;;5.28;1.20;;;12.30;99.90;;;;;;4900728;29;20112;-81
2023/10/28 05:40:43;;;;;;;3.33;1.20;;;12.30;99.90;;;;;;4901290;29;20040;-81
2023/10/28 05:43:09;;;;;;;7.40;1.48;;;12.30;99.90;;;;;;4900609;29;20371;-81
2023/10/28 05:45:34;;;;;;;4.53;1.48;;;12.30;99.90;;;;;;4883746;29;20100;-82
2023/10/28 05:48:00;;;;;;;2.50;1.27;;;12.30;99.90;;;;;;4900837;29;20036;-83
2023/10/28 05:50:27;;;;;;;4.72;1.10;;;12.40;99.90;;;;;;4884557;29;20047;-84
2023/10/28 05:52:54;;;;;;;5.53;1.38;;;12.30;99.90;;;;;;4883870;29;20033;-83
2023/10/28 05:55:19;;;;;;;5.57;1.88;;;12.40;99.90;;;;;;4901195;29;20131;-83
2023/10/28 05:57:45;;;;;;;3.15;1.30;;;12.40;99.90;;;;;;4883506;29;20064;-83
2023/10/28 06:00:11;;;;;;;3.85;1.75;;;12.40;99.90;;;;;;4900534;29;20040;-82
2023/10/28 06:02:38;;;;;;;4.22;1.63;;;12.40;99.90;;;;;;4900978;29;20438;-83
2023/10/28 06:05:04;;;;;;;3.97;1.25;;;12.40;99.90;;;;;;4868218;29;20048;-83
2023/10/28 06:07:33;;;;;;;4.82;1.10;;;12.40;99.90;;;;;;4900317;29;20052;-83
2023/10/28 06:09:59;;;;;;;3.25;1.45;;;12.40;99.90;;;;;;4900167;29;20024;-83
2023/10/28 06:12:25;;;;;;;3.40;1.50;;;12.40;99.90;;;;;;4883333;29;20033;-80
2023/10/28 06:14:51;;;;;;;2.65;1.35;;;12.40;99.90;;;;;;4883686;29;20033;-83
2023/10/28 06:17:17;;;;;;;4.53;2.13;;;12.50;99.90;;;;;;4883274;29;20492;-83
2023/10/28 06:19:43;;;;;;;4.97;1.33;;;12.50;99.90;;;;;;4901427;29;20160;-82
2023/10/28 06:22:11;;;;;;;5.80;1.38;;;12.40;99.90;;;;;;4902346;29;20040;-82
2023/10/28 06:24:38;;;;;;;4.97;1.20;;;12.50;99.90;;;;;;4885155;29;20040;-82
2023/10/28 06:27:04;;;;;;;5.32;1.55;;;12.50;99.90;;;;;;4887031;29;20119;-82
2023/10/28 06:29:30;;;;;;;4.78;1.20;;;12.50;99.90;;;;;;4903876;29;20041;-82
2023/10/28 06:31:58;;;;;;;4.63;1.25;;;12.50;99.90;;;;;;4905138;29;20036;-80
2023/10/28 06:34:27;;;;;;;4.72;1.70;;;12.50;99.90;;;;;;4874095;29;20043;-83
2023/10/28 06:36:53;;;;;;;4.20;1.60;;;12.50;99.90;;;;;;4886172;29;20028;-82
2023/10/28 06:39:18;;;;;;;4.25;1.60;;;12.50;99.90;;;;;;4883863;29;20036;-82
2023/10/28 06:41:44;;;;;;;4.68;1.70;;;12.50;99.90;;;;;;4901426;29;20043;-82
2023/10/28 06:44:10;;;;;;;4.88;1.60;;;12.50;99.90;;;;;;4885204;29;20036;-81
2023/10/28 06:46:36;;;;;;;5.03;1.85;;;12.40;99.90;;;;;;4868811;29;20060;-82
2023/10/28 06:49:02;;;;;;;3.85;2.05;;;12.40;99.90;;;;;;4883930;29;20036;-82
2023/10/28 06:51:28;;;;;;;6.15;1.70;;;12.50;99.90;;;;;;4901597;29;20468;-83
2023/10/28 06:53:54;;;;;;;4.47;1.50;;;12.40;99.90;;;;;;4885346;29;20041;-81
2023/10/28 06:56:19;;;;;;;4.10;1.40;;;12.40;99.90;;;;;;4885814;29;20454;-82
2023/10/28 06:58:45;;;;;;;3.83;1.40;;;12.40;99.90;;;;;;4886227;29;20041;-81
2023/10/28 07:01:11;;;;;;;4.40;1.40;;;12.40;99.90;;;;;;4906884;29;20028;-82
2023/10/28 07:03:40;;;;;;;6.70;1.92;;;12.40;99.90;;;;;;4891180;29;20112;-82
2023/10/28 07:06:09;;;;;;;3.72;1.50;;;12.40;99.90;;;;;;4908839;29;20064;-82
2023/10/28 07:08:36;;;;;;;6.43;1.40;;;12.30;99.90;;;;;;4907649;29;20097;-83
2023/10/28 07:11:02;;;;;;;4.70;1.23;;;12.40;99.90;;;;;;4906451;29;20029;-82
2023/10/28 07:13:27;;;;;;;6.78;1.60;;;12.40;99.90;;;;;;4907843;29;20120;-83
2023/10/28 07:16:01;;;;;;;5.72;1.65;;;12.40;99.90;;;;;;4906588;29;20403;-82
2023/10/28 07:18:27;;;;;;;6.28;1.55;;;12.40;99.90;;;;;;4887464;29;20033;-81
2023/10/28 07:20:53;;;;;;;8.90;1.85;;;12.40;99.90;;;;;;4903632;29;20140;-82
2023/10/28 07:23:20;;;;;;;6.43;1.88;;;12.40;99.90;;;;;;4902340;29;20101;-82
2023/10/28 07:25:46;;;;;;;4.85;2.20;;;12.40;99.90;;;;;;4886646;29;20060;-82
2023/10/28 07:28:14;;;;;;;6.55;1.30;;;12.40;99.90;;;;;;4906365;29;20040;-82
2023/10/28 07:30:50;;;;;;;4.38;1.55;;;12.40;99.90;;;;;;4909101;29;20040;-82
2023/10/28 07:33:18;;;;;;;7.80;1.92;;;12.50;99.90;;;;;;4906013;29;20040;-82
2023/10/28 07:35:47;;;;;;;4.72;1.35;;;12.40;99.90;;;;;;4901735;29;20041;-82
2023/10/28 07:38:17;;;;;;;5.10;1.10;;;12.40;99.90;;;;;;4901351;29;20028;-80
2023/10/28 07:40:44;;;;;;;5.93;1.10;;;12.40;99.90;;;;;;4899035;29;20533;-80
2023/10/28 07:43:13;;;;;;;6.32;1.30;;;12.40;99.90;;;;;;4898644;29;20036;-77
2023/10/28 07:45:40;;;;;;;4.40;1.50;;;12.40;99.90;;;;;;4898439;29;20089;-81
2023/10/28 07:48:07;;;;;;;4.97;1.13;;;12.50;99.90;;;;;;4898632;29;20107;-77
2023/10/28 07:50:36;;;;;;;3.40;1.25;;;12.50;99.90;;;;;;4898068;29;20497;-77
2023/10/28 07:53:04;;;;;;;6.95;1.10;;;12.50;99.90;;;;;;4898186;29;20029;-77
2023/10/28 07:55:30;;;;;;;5.30;1.10;;;12.50;99.90;;;;;;4881681;29;20045;-77
2023/10/28 07:57:56;;;;;;;6.97;1.30;;;12.40;99.90;;;;;;4898133;29;20410;-77
2023/10/28 08:00:23;;;;;;;5.82;1.00;;;12.30;99.90;;;;;;4897928;29;20116;-77
2023/10/28 08:02:50;;;;;;;7.18;1.42;;;12.30;99.90;;;;;;4898102;29;20043;-77
2023/10/28 08:05:16;;;;;;;4.60;1.45;;;12.40;99.90;;;;;;4881297;29;20040;-76
2023/10/28 08:07:42;;;;;;;6.47;1.42;;;12.50;99.90;;;;;;4898100;29;20111;-75
2023/10/28 08:10:09;;;;;;;6.60;1.30;;;12.50;99.90;;;;;;4898249;29;20035;-75
2023/10/28 08:12:35;;;;;;;9.00;1.42;;;12.50;99.90;;;;;;4881696;29;20036;-76
2023/10/28 08:15:02;;;;;;;4.90;1.05;;;12.50;99.90;;;;;;4882117;29;20028;-75
2023/10/28 08:17:30;;;;;;;6.85;1.33;;;12.50;99.90;;;;;;4899202;29;20128;-76
2023/10/28 08:19:56;;;;;;;8.07;1.42;;;12.60;99.90;;;;;;4886786;29;20395;-76
2023/10/28 08:22:22;;;;;;;4.70;0.85;;;12.60;99.90;;;;;;4918619;29;20092;-76
2023/10/28 08:24:48;;;;;;;6.40;1.20;;;12.60;99.90;;;;;;4917702;29;20500;-76
2023/10/28 08:27:14;;;;;;;3.92;1.00;;;12.60;99.90;;;;;;4885049;29;20127;-75
2023/10/28 08:29:39;;;;;;;4.47;1.00;;;12.60;99.90;;;;;;4916419;29;20099;-75
2023/10/28 08:32:06;;;;;;;5.05;1.25;;;12.70;99.90;;;;;;4899158;29;20037;-75
2023/10/28 08:34:33;;;;;;;7.20;1.27;;;12.70;99.90;;;;;;4899582;29;20040;-75
2023/10/28 08:36:59;;;;;;;6.72;1.65;;;12.70;99.90;;;;;;4916872;29;20032;-76
2023/10/28 08:39:26;;;;;;;3.97;1.13;;;12.80;99.90;;;;;;4916663;29;20047;-76
2023/10/28 08:41:51;;;;;;;9.63;1.45;;;12.70;99.90;;;;;;4916625;29;20068;-76
2023/10/28 08:44:20;;;;;;;5.15;0.85;;;12.80;99.90;;;;;;4916836;29;20472;-76
2023/10/28 08:46:49;;;;;;;5.78;1.35;;;12.80;99.90;;;;;;4885410;29;20043;-75
2023/10/28 08:49:17;;;;;;;3.63;1.00;;;12.80;99.90;;;;;;4921242;29;20037;-75
2023/10/28 08:51:48;;;;;;;5.68;1.40;;;12.90;99.90;;;;;;4920445;29;20068;-76
2023/10/28 08:54:16;;;;;;;4.70;1.05;;;12.90;99.90;;;;;;4920084;29;20468;-78
2023/10/28 08:56:43;;;;;;;5.03;1.25;;;12.90;99.90;;;;;;4920805;29;20036;-76
2023/10/28 08:59:10;;;;;;;4.43;1.20;;;12.90;99.90;;;;;;4920049;29;20035;-76
2023/10/28 09:01:36;;;;;;;5.50;1.00;;;12.90;99.90;;;;;;4919934;29;20084;-76
2023/10/28 09:04:05;;;;;;;5.78;1.15;;;13.00;99.90;;;;;;4920072;29;20047;-76
2023/10/28 09:06:32;;;;;;;6.47;1.23;;;13.00;99.90;;;;;;4903405;29;20032;-76
2023/10/28 09:08:59;;;;;;;6.20;1.13;;;13.00;99.90;;;;;;4920666;29;20068;-78
2023/10/28 09:11:25;;;;;;;5.35;0.70;;;13.00;99.90;;;;;;4920072;29;20063;-82
2023/10/28 09:13:51;;;;;;;6.40;1.35;;;13.10;99.90;;;;;;4902817;29;20059;-80
2023/10/28 09:16:17;;;;;;;5.32;1.15;;;13.10;99.90;;;;;;4920177;29;20039;-79
2023/10/28 09:18:44;;;;;;;7.60;1.20;;;13.10;99.90;;;;;;4902852;29;20032;-77
2023/10/28 09:21:10;;;;;;;10.40;1.17;;;13.20;99.90;;;;;;4906436;29;20057;-78
2023/10/28 09:23:37;;;;;;;8.07;1.30;;;13.20;99.90;;;;;;4883893;29;20037;-78
2023/10/28 09:26:04;;;;;;;6.50;1.40;;;13.30;99.90;;;;;;4884104;29;20092;-76
2023/10/28 09:28:31;;;;;;;6.13;1.10;;;13.30;99.90;;;;;;4901145;29;20084;-76
2023/10/28 09:30:57;;;;;;;4.63;1.10;;;13.30;99.90;;;;;;4884550;29;20032;-76
2023/10/28 09:33:23;;;;;;;5.10;1.33;;;13.40;99.90;;;;;;4900803;29;20088;-76
2023/10/28 09:35:53;;;;;;;7.35;1.10;;;13.40;99.90;;;;;;4900892;29;20033;-76
2023/10/28 09:38:20;;;;;;;4.93;1.10;;;13.40;99.90;;;;;;4900737;29;20028;-75
2023/10/28 09:40:47;;;;;;;8.63;1.33;;;13.40;99.90;;;;;;4900506;29;20032;-77
2023/10/28 09:43:15;;;;;;;4.57;0.90;;;13.40;99.90;;;;;;4900681;29;20108;-78
2023/10/28 09:45:42;;;;;;;8.25;1.15;;;13.40;99.90;;;;;;4900514;29;20033;-78
2023/10/28 09:48:14;;;;;;;7.40;0.93;;;13.50;99.90;;;;;;4884251;29;20064;-79
2023/10/28 09:50:50;;;;;;;5.43;0.98;;;13.50;99.90;;;;;;4893109;29;20397;-79
2023/10/28 09:53:21;;;;;;;7.53;1.00;;;13.40;99.90;;;;;;4900201;29;20039;-80
2023/10/28 09:55:49;;;;;;;5.47;0.95;;;13.40;99.90;;;;;;4883915;29;20417;-79
2023/10/28 09:58:30;;;;;;;5.20;1.40;;;13.40;99.90;;;;;;4882790;29;20091;-80
2023/10/28 10:01:21;;;;;;;8.20;1.00;;;13.50;99.90;;;;;;4900252;29;20067;-80
2023/10/28 10:04:20;;;;;;;7.45;1.23;;;13.50;99.90;;;;;;4870361;29;20147;-80
2023/10/28 10:06:47;;;;;;;6.63;0.90;;;13.50;99.90;;;;;;4884105;29;20035;-79
2023/10/28 10:09:18;;;;;;;7.43;0.70;;;13.60;99.90;;;;;;4883849;29;20080;-80
2023/10/28 10:11:44;;;;;;;7.13;1.00;;;13.60;99.90;;;;;;4900131;29;20032;-80
2023/10/28 10:14:11;;;;;;;5.90;1.17;;;13.60;99.90;;;;;;4883037;29;20044;-80
2023/10/28 10:16:38;;;;;;;6.60;1.15;;;13.60;99.90;;;;;;4868082;29;20481;-81
2023/10/28 10:19:10;;;;;;;7.32;0.90;;;13.60;99.90;;;;;;4883460;29;20119;-80
2023/10/28 10:21:36;;;;;;;3.45;0.68;;;13.60;99.90;;;;;;4900366;29;20477;-81
2023/10/28 10:24:06;;;;;;;7.25;0.82;;;13.70;99.90;;;;;;4882576;29;20037;-81
2023/10/28 10:26:34;;;;;;;5.32;0.90;;;13.70;99.90;;;;;;4900175;29;20035;-80
2023/10/28 10:29:05;;;;;;;6.68;0.95;;;13.70;99.90;;;;;;4900153;29;20044;-81
2023/10/28 10:31:33;;;;;;;11.82;1.90;;;13.70;99.90;;;;;;4885279;29;20492;-81
2023/10/28 10:33:58;;;;;;;10.15;3.10;;;13.70;99.90;;;;;;4868735;29;20048;-81
2023/10/28 10:36:27;;;;;;;14.63;4.80;;;13.80;99.90;;;;;;4901079;29;20025;-81
2023/10/28 10:38:52;;;;;;;11.10;4.88;;;13.80;99.90;;;;;;4884991;29;20029;-81
2023/10/28 10:41:28;;;;;;;14.52;2.47;;;13.80;99.90;;;;;;4884758;29;20036;-79
2023/10/28 10:43:54;;;;;;;6.45;1.45;;;13.80;99.90;;;;;;4883755;29;20074;-81
2023/10/28 10:46:20;;;;;;;11.10;1.63;;;13.90;99.90;;;;;;4868219;29;20402;-82
2023/10/28 10:48:49;;;;;;;8.77;1.33;;;13.90;99.90;;;;;;4899677;29;20107;-80
2023/10/28 10:51:15;;;;;;;4.90;1.08;;;13.90;99.90;;;;;;4867695;29;20033;-81
2023/10/28 10:53:44;;;;;;;11.35;2.15;;;13.90;99.90;;;;;;4899437;29;20052;-83
2023/10/28 10:56:20;;;;;;;11.20;1.42;;;13.90;99.90;;;;;;4899597;29;20397;-80
2023/10/28 10:58:46;;;;;;;7.32;2.03;;;13.90;99.90;;;;;;4882433;29;20028;-81
2023/10/28 11:01:12;;;;;;;7.47;1.10;;;14.00;99.90;;;;;;4882229;29;20044;-79
2023/10/28 11:03:39;;;;;;;9.65;0.75;;;14.00;99.90;;;;;;4899108;29;20029;-79
2023/10/28 11:06:06;;;;;;;7.65;1.63;;;14.10;99.90;;;;;;4899160;29;20037;-82
2023/10/28 11:08:31;;;;;;;10.40;1.27;;;14.00;99.90;;;;;;4866869;29;20053;-80
2023/10/28 11:10:57;;;;;;;6.60;1.20;;;14.00;99.90;;;;;;4881875;29;20059;-80
2023/10/28 11:13:23;;;;;;;6.63;1.98;;;14.10;99.90;;;;;;4899317;29;20385;-84
2023/10/28 11:15:49;;;;;;;8.40;1.63;;;14.10;99.90;;;;;;4882149;29;20028;-80
2023/10/28 11:18:15;;;;;;;5.07;2.25;;;14.10;99.90;;;;;;4866677;29;20033;-80
2023/10/28 11:20:42;;;;;;;10.27;1.83;;;14.10;99.90;;;;;;4892071;29;20055;-79
2023/10/28 11:23:08;;;;;;;6.22;1.15;;;14.10;99.90;;;;;;4885395;29;20119;-77
2023/10/28 11:25:35;;;;;;;5.88;1.20;;;14.10;99.90;;;;;;4917472;29;20111;-77
2023/10/28 11:28:09;;;;;;;5.97;1.02;;;14.10;99.90;;;;;;4918008;29;20052;-76
2023/10/28 11:30:37;;;;;;;7.82;0.90;;;14.20;99.90;;;;;;4900686;29;20064;-76
2023/10/28 11:33:09;;;;;;;5.68;1.10;;;14.20;99.90;;;;;;4900339;29;20043;-76
2023/10/28 11:35:35;;;;;;;8.57;1.25;;;14.30;99.90;;;;;;4900605;29;20035;-77
2023/10/28 11:38:02;;;;;;;5.20;0.85;;;14.30;99.90;;;;;;4885718;29;20044;-76
2023/10/28 11:40:29;;;;;;;5.43;0.93;;;14.40;99.90;;;;;;4918204;29;20113;-77
2023/10/28 11:42:54;;;;;;;7.47;0.80;;;14.30;99.90;;;;;;4900871;29;20036;-77
2023/10/28 11:45:20;;;;;;;3.55;0.77;;;14.40;99.90;;;;;;4900256;29;20477;-77
2023/10/28 11:47:46;;;;;;;4.70;0.98;;;14.40;99.90;;;;;;4917055;29;20466;-77
2023/10/28 11:50:12;;;;;;;5.43;0.80;;;14.40;99.90;;;;;;4885014;29;20044;-77
2023/10/28 11:52:38;;;;;;;5.53;0.47;;;14.30;99.90;;;;;;4917231;29;20370;-77
2023/10/28 11:55:08;;;;;;;5.32;0.57;;;14.30;99.90;;;;;;4900282;29;20032;-76
2023/10/28 11:57:33;;;;;;;8.57;1.17;;;14.30;99.90;;;;;;4885169;29;20028;-77
2023/10/28 11:59:59;;;;;;;5.63;0.65;;;14.30;99.90;;;;;;4900322;29;20338;-77
2023/10/28 12:02:25;;;;;;;6.13;0.50;;;14.40;99.90;;;;;;4900349;29;20040;-77
2023/10/28 12:04:51;;;;;;;4.43;0.43;;;14.40;99.90;;;;;;4884544;29;20191;-77
2023/10/28 12:07:17;;;;;;;6.05;0.75;;;14.50;99.90;;;;;;4900511;29;20028;-76
2023/10/28 12:09:42;;;;;;;5.32;0.70;;;14.50;99.90;;;;;;4900076;29;20028;-76
2023/10/28 12:12:09;;;;;;;6.28;0.95;;;14.60;99.90;;;;;;4916828;29;20063;-77
2023/10/28 12:14:35;;;;;;;5.93;0.57;;;14.70;99.90;;;;;;4916704;29;20042;-77
2023/10/28 12:17:01;;;;;;;5.38;0.43;;;14.90;99.90;;;;;;4916735;29;20480;-77
2023/10/28 12:19:26;;;;;;;8.43;1.08;;;15.00;99.90;;;;;;4900486;29;20028;-77
2023/10/28 12:21:53;;;;;;;7.43;0.93;;;15.10;99.90;;;;;;4899916;29;20454;-77
2023/10/28 12:24:18;;;;;;;9.10;0.90;;;15.30;99.90;;;;;;4897894;29;20056;-77
2023/10/28 12:26:44;;;;;;;9.65;1.55;;;15.40;99.90;;;;;;4897886;29;20029;-77
2023/10/28 12:29:10;;;;;;;6.13;0.70;;;15.50;99.90;;;;;;4881218;29;20093;-77
2023/10/28 12:31:35;;;;;;;8.73;0.88;;;15.50;99.90;;;;;;4898373;29;20052;-76
2023/10/28 12:34:03;;;;;;;7.00;0.75;;;15.60;99.50;;;;;;4881122;29;20065;-77
2023/10/28 12:36:29;;;;;;;5.55;0.77;;;15.70;99.60;;;;;;4898622;29;20379;-77
2023/10/28 12:38:55;;;;;;;7.60;1.08;;;15.70;99.40;;;;;;4865703;29;20037;-77
2023/10/28 12:41:20;;;;;;;7.57;1.10;;;15.80;99.90;;;;;;4881135;29;20084;-77
2023/10/28 12:43:46;;;;;;;7.53;0.98;;;16.00;99.90;;;;;;4881856;29;20037;-77